sensor_id;sensor_type;location;lat;lon;timestamp;pressure;altitude;pressure_sealevel;temperature;humidity
7594;BME280;3838;43.124;25.686;2023-10-31T00:00:51;99400.34;;;22.06;59.65
7594;BME280;3838;43.124;25.686;2023-10-31T00:03:16;99397.78;;;22.06;59.77
7594;BME280;3838;43.124;25.686;2023-10-31T00:05:42;99392.63;;;22.04;59.54
7594;BME280;3838;43.124;25.686;2023-10-31T00:08:07;99390.06;;;22.06;59.55
7594;BME280;3838;43.124;25.686;2023-10-31T00:10:33;99385.75;;;22.03;59.58
7594;BME280;3838;43.124;25.686;2023-10-31T00:12:58;99381.50;;;22.03;59.53
7594;BME280;3838;43.124;25.686;2023-10-31T00:15:24;99378.13;;;22.08;59.37
7594;BME280;3838;43.124;25.686;2023-10-31T00:17:50;99373.94;;;22.13;59.26
7594;BME280;3838;43.124;25.686;2023-10-31T00:20:15;99375.63;;;22.11;59.12
7594;BME280;3838;43.124;25.686;2023-10-31T00:22:41;99373.06;;;22.11;59.73
7594;BME280;3838;43.124;25.686;2023-10-31T00:25:06;99364.44;;;22.06;59.66
7594;BME280;3838;43.124;25.686;2023-10-31T00:27:32;99365.25;;;22.03;59.87
7594;BME280;3838;43.124;25.686;2023-10-31T00:29:57;99356.69;;;22.04;59.99
7594;BME280;3838;43.124;25.686;2023-10-31T00:32:23;99366.97;;;22.04;59.93
7594;BME280;3838;43.124;25.686;2023-10-31T00:34:50;99360.03;;;22.00;59.55
7594;BME280;3838;43.124;25.686;2023-10-31T00:37:16;99355.75;;;22.00;59.62
7594;BME280;3838;43.124;25.686;2023-10-31T00:39:41;99356.59;;;21.99;59.57
7594;BME280;3838;43.124;25.686;2023-10-31T00:42:07;99351.47;;;21.99;59.85
7594;BME280;3838;43.124;25.686;2023-10-31T00:44:33;99348.94;;;22.01;59.52
7594;BME280;3838;43.124;25.686;2023-10-31T00:46:58;99349.75;;;22.00;59.83
7594;BME280;3838;43.124;25.686;2023-10-31T00:49:24;99345.50;;;22.00;59.80
7594;BME280;3838;43.124;25.686;2023-10-31T00:51:49;99342.03;;;21.98;59.56
7594;BME280;3838;43.124;25.686;2023-10-31T00:54:14;99331.78;;;21.98;59.57
7594;BME280;3838;43.124;25.686;2023-10-31T00:56:40;99327.53;;;21.99;60.01
7594;BME280;3838;43.124;25.686;2023-10-31T00:59:05;99327.53;;;22.00;59.92
7594;BME280;3838;43.124;25.686;2023-10-31T01:01:31;99333.50;;;21.99;59.54
7594;BME280;3838;43.124;25.686;2023-10-31T01:03:57;99316.44;;;22.01;59.74
7594;BME280;3838;43.124;25.686;2023-10-31T01:06:22;99324.94;;;21.97;59.89
7594;BME280;3838;43.124;25.686;2023-10-31T01:08:47;99313.81;;;21.97;59.58
7594;BME280;3838;43.124;25.686;2023-10-31T01:11:13;99316.34;;;21.95;59.50
7594;BME280;3838;43.124;25.686;2023-10-31T01:13:38;99310.38;;;21.96;59.98
7594;BME280;3838;43.124;25.686;2023-10-31T01:16:04;99309.53;;;21.97;59.84
7594;BME280;3838;43.124;25.686;2023-10-31T01:18:29;99312.13;;;21.99;59.87
7594;BME280;3838;43.124;25.686;2023-10-31T01:20:55;99307.88;;;21.99;60.01
7594;BME280;3838;43.124;25.686;2023-10-31T01:23:20;99308.69;;;21.97;59.48
7594;BME280;3838;43.124;25.686;2023-10-31T01:25:45;99301.00;;;21.98;59.61
7594;BME280;3838;43.124;25.686;2023-10-31T01:28:11;99309.53;;;21.97;59.94
7594;BME280;3838;43.124;25.686;2023-10-31T01:30:36;99307.88;;;21.99;59.66
7594;BME280;3838;43.124;25.686;2023-10-31T01:33:02;99300.16;;;21.98;59.83
7594;BME280;3838;43.124;25.686;2023-10-31T01:35:27;99304.47;;;22.00;59.79
7594;BME280;3838;43.124;25.686;2023-10-31T01:37:53;99301.84;;;21.97;59.44
7594;BME280;3838;43.124;25.686;2023-10-31T01:40:19;99293.31;;;21.98;59.90
7594;BME280;3838;43.124;25.686;2023-10-31T01:42:45;99290.75;;;21.98;59.55
7594;BME280;3838;43.124;25.686;2023-10-31T01:45:10;99283.88;;;21.97;59.65
7594;BME280;3838;43.124;25.686;2023-10-31T01:47:36;99298.47;;;22.00;59.41
7594;BME280;3838;43.124;25.686;2023-10-31T01:50:01;99285.59;;;21.97;59.41
7594;BME280;3838;43.124;25.686;2023-10-31T01:52:27;99283.88;;;21.97;59.45
7594;BME280;3838;43.124;25.686;2023-10-31T01:54:54;99283.06;;;22.00;59.41
7594;BME280;3838;43.124;25.686;2023-10-31T01:57:21;99277.94;;;22.00;59.81
7594;BME280;3838;43.124;25.686;2023-10-31T01:59:46;99279.63;;;21.98;59.44
7594;BME280;3838;43.124;25.686;2023-10-31T02:02:12;99278.81;;;22.00;59.86
7594;BME280;3838;43.124;25.686;2023-10-31T02:04:38;99284.81;;;22.01;59.73
7594;BME280;3838;43.124;25.686;2023-10-31T02:07:03;99281.38;;;22.00;59.36
7594;BME280;3838;43.124;25.686;2023-10-31T02:09:29;99280.47;;;21.98;59.34
7594;BME280;3838;43.124;25.686;2023-10-31T02:11:55;99278.75;;;21.97;59.78
7594;BME280;3838;43.124;25.686;2023-10-31T02:14:22;99273.63;;;21.97;59.82
7594;BME280;3838;43.124;25.686;2023-10-31T02:16:47;99273.63;;;21.97;59.88
7594;BME280;3838;43.124;25.686;2023-10-31T02:19:16;99282.19;;;21.98;59.51
7594;BME280;3838;43.124;25.686;2023-10-31T02:21:43;99283.06;;;21.98;59.75
7594;BME280;3838;43.124;25.686;2023-10-31T02:24:09;99283.03;;;21.97;59.88
7594;BME280;3838;43.124;25.686;2023-10-31T02:26:35;99275.34;;;21.97;59.79
7594;BME280;3838;43.124;25.686;2023-10-31T02:29:01;99281.31;;;21.97;59.76
7594;BME280;3838;43.124;25.686;2023-10-31T02:31:27;99278.75;;;21.97;59.78
7594;BME280;3838;43.124;25.686;2023-10-31T02:33:53;99285.56;;;21.95;59.45
7594;BME280;3838;43.124;25.686;2023-10-31T02:36:19;99289.88;;;21.96;59.49
7594;BME280;3838;43.124;25.686;2023-10-31T02:38:45;99283.84;;;21.94;59.39
7594;BME280;3838;43.124;25.686;2023-10-31T02:41:10;99286.41;;;21.94;59.80
7594;BME280;3838;43.124;25.686;2023-10-31T02:43:37;99288.13;;;21.94;59.54
7594;BME280;3838;43.124;25.686;2023-10-31T02:46:03;99283.00;;;21.95;59.84
7594;BME280;3838;43.124;25.686;2023-10-31T02:48:28;99288.13;;;21.95;59.29
7594;BME280;3838;43.124;25.686;2023-10-31T02:50:54;99281.28;;;21.94;59.82
7594;BME280;3838;43.124;25.686;2023-10-31T02:53:20;99298.41;;;21.95;59.60
7594;BME280;3838;43.124;25.686;2023-10-31T02:55:45;99286.44;;;21.96;59.76
7594;BME280;3838;43.124;25.686;2023-10-31T02:58:11;99288.09;;;21.92;59.49
7594;BME280;3838;43.124;25.686;2023-10-31T03:00:36;99285.53;;;21.92;59.50
7594;BME280;3838;43.124;25.686;2023-10-31T03:03:02;99288.06;;;21.91;59.87
7594;BME280;3838;43.124;25.686;2023-10-31T03:05:28;99291.59;;;21.99;59.60
7594;BME280;3838;43.124;25.686;2023-10-31T03:07:53;99305.31;;;22.01;59.92
7594;BME280;3838;43.124;25.686;2023-10-31T03:10:20;99290.69;;;21.94;59.48
7594;BME280;3838;43.124;25.686;2023-10-31T03:12:47;99289.78;;;21.90;59.92
7594;BME280;3838;43.124;25.686;2023-10-31T03:15:12;99283.72;;;21.87;60.17
7594;BME280;3838;43.124;25.686;2023-10-31T03:17:38;99279.41;;;21.84;60.16
7594;BME280;3838;43.124;25.686;2023-10-31T03:20:04;99283.72;;;21.85;60.00
7594;BME280;3838;43.124;25.686;2023-10-31T03:22:29;99276.00;;;21.85;60.13
7594;BME280;3838;43.124;25.686;2023-10-31T03:24:55;99278.56;;;21.85;59.83
7594;BME280;3838;43.124;25.686;2023-10-31T03:27:20;99280.25;;;21.83;59.96
7594;BME280;3838;43.124;25.686;2023-10-31T03:29:46;99281.16;;;21.87;60.11
7594;BME280;3838;43.124;25.686;2023-10-31T03:32:12;99272.63;;;21.86;59.65
7594;BME280;3838;43.124;25.686;2023-10-31T03:34:37;99274.28;;;21.84;60.17
7594;BME280;3838;43.124;25.686;2023-10-31T03:37:04;99263.19;;;21.85;59.98
7594;BME280;3838;43.124;25.686;2023-10-31T03:39:29;99273.44;;;21.85;60.03
7594;BME280;3838;43.124;25.686;2023-10-31T03:41:55;99272.56;;;21.83;60.14
7594;BME280;3838;43.124;25.686;2023-10-31T03:44:21;99263.19;;;21.85;59.84
7594;BME280;3838;43.124;25.686;2023-10-31T03:46:46;99267.41;;;21.82;60.01
7594;BME280;3838;43.124;25.686;2023-10-31T03:49:11;99260.59;;;21.82;59.77
7594;BME280;3838;43.124;25.686;2023-10-31T03:51:37;99259.75;;;21.83;59.89
7594;BME280;3838;43.124;25.686;2023-10-31T03:54:02;99265.72;;;21.82;59.69
7594;BME280;3838;43.124;25.686;2023-10-31T03:56:28;99262.28;;;21.82;60.08
7594;BME280;3838;43.124;25.686;2023-10-31T03:58:53;99251.06;;;21.75;59.59
7594;BME280;3838;43.124;25.686;2023-10-31T04:01:19;99252.78;;;21.76;59.72
7594;BME280;3838;43.124;25.686;2023-10-31T04:03:44;99253.66;;;21.77;60.04
7594;BME280;3838;43.124;25.686;2023-10-31T04:06:09;99262.22;;;21.77;59.72
7594;BME280;3838;43.124;25.686;2023-10-31T04:08:35;99260.50;;;21.76;59.97
7594;BME280;3838;43.124;25.686;2023-10-31T04:11:00;99253.63;;;21.75;59.52
7594;BME280;3838;43.124;25.686;2023-10-31T04:13:26;99258.75;;;21.74;59.65
7594;BME280;3838;43.124;25.686;2023-10-31T04:15:51;99255.34;;;21.75;59.71
7594;BME280;3838;43.124;25.686;2023-10-31T04:18:17;99264.72;;;21.73;60.00
7594;BME280;3838;43.124;25.686;2023-10-31T04:20:42;99261.34;;;21.75;59.66
7594;BME280;3838;43.124;25.686;2023-10-31T04:23:08;99256.19;;;21.75;59.86
7594;BME280;3838;43.124;25.686;2023-10-31T04:25:33;99255.28;;;21.71;59.67
7594;BME280;3838;43.124;25.686;2023-10-31T04:27:59;99268.13;;;21.73;59.98
7594;BME280;3838;43.124;25.686;2023-10-31T04:30:25;99253.53;;;21.69;59.56
7594;BME280;3838;43.124;25.686;2023-10-31T04:32:51;99258.75;;;21.74;59.39
7594;BME280;3838;43.124;25.686;2023-10-31T04:35:17;99255.28;;;21.71;59.83
7594;BME280;3838;43.124;25.686;2023-10-31T04:37:42;99253.59;;;21.72;59.67
7594;BME280;3838;43.124;25.686;2023-10-31T04:40:08;99262.16;;;21.73;59.44
7594;BME280;3838;43.124;25.686;2023-10-31T04:42:34;99254.38;;;21.68;59.51
7594;BME280;3838;43.124;25.686;2023-10-31T04:44:59;99252.75;;;21.73;59.76
7594;BME280;3838;43.124;25.686;2023-10-31T04:47:25;99257.84;;;21.71;59.89
7594;BME280;3838;43.124;25.686;2023-10-31T04:49:50;99256.16;;;21.72;59.33
7594;BME280;3838;43.124;25.686;2023-10-31T04:52:17;99257.84;;;21.71;59.76
7594;BME280;3838;43.124;25.686;2023-10-31T04:54:42;99255.28;;;21.70;59.76
7594;BME280;3838;43.124;25.686;2023-10-31T04:57:08;99254.44;;;21.71;59.38
7594;BME280;3838;43.124;25.686;2023-10-31T04:59:34;99251.00;;;21.70;59.26
7594;BME280;3838;43.124;25.686;2023-10-31T05:01:59;99256.94;;;21.68;59.39
7594;BME280;3838;43.124;25.686;2023-10-31T05:04:25;99252.75;;;21.73;58.81
7594;BME280;3838;43.124;25.686;2023-10-31T05:06:51;99261.28;;;21.72;59.37
7594;BME280;3838;43.124;25.686;2023-10-31T05:09:16;99259.56;;;21.71;59.75
7594;BME280;3838;43.124;25.686;2023-10-31T05:11:42;99257.88;;;21.73;59.50
7594;BME280;3838;43.124;25.686;2023-10-31T05:14:09;99252.78;;;21.75;59.67
7594;BME280;3838;43.124;25.686;2023-10-31T05:16:42;99249.59;;;21.91;59.55
7594;BME280;3838;43.124;25.686;2023-10-31T05:19:08;99247.84;;;21.88;59.58
7594;BME280;3838;43.124;25.686;2023-10-31T05:21:34;99250.31;;;21.82;59.68
7594;BME280;3838;43.124;25.686;2023-10-31T05:23:59;99251.13;;;21.78;60.25
7594;BME280;3838;43.124;25.686;2023-10-31T05:26:25;99252.78;;;21.76;59.63
7594;BME280;3838;43.124;25.686;2023-10-31T05:28:52;99258.81;;;21.78;59.60
7594;BME280;3838;43.124;25.686;2023-10-31T05:31:18;99262.41;;;21.89;60.52
7594;BME280;3838;43.124;25.686;2023-10-31T05:33:44;99246.09;;;21.84;59.54
7594;BME280;3838;43.124;25.686;2023-10-31T05:36:23;99250.31;;;21.81;60.55
7594;BME280;3838;43.124;25.686;2023-10-31T05:38:48;99245.16;;;21.79;60.22
7594;BME280;3838;43.124;25.686;2023-10-31T05:41:14;99251.97;;;21.79;60.63
7594;BME280;3838;43.124;25.686;2023-10-31T05:43:40;99249.41;;;21.79;60.54
7594;BME280;3838;43.124;25.686;2023-10-31T05:46:05;99253.72;;;21.80;60.55
7594;BME280;3838;43.124;25.686;2023-10-31T05:48:34;99263.97;;;21.80;60.28
7594;BME280;3838;43.124;25.686;2023-10-31T05:50:59;99265.66;;;21.79;60.38
7594;BME280;3838;43.124;25.686;2023-10-31T05:53:24;99263.13;;;21.81;60.09
7594;BME280;3838;43.124;25.686;2023-10-31T05:55:50;99270.81;;;21.81;60.55
7594;BME280;3838;43.124;25.686;2023-10-31T05:58:15;99264.00;;;21.81;60.38
7594;BME280;3838;43.124;25.686;2023-10-31T06:00:41;99264.00;;;21.81;60.22
7594;BME280;3838;43.124;25.686;2023-10-31T06:03:06;99260.59;;;21.82;60.05
7594;BME280;3838;43.124;25.686;2023-10-31T06:05:33;99262.34;;;21.85;59.87
7594;BME280;3838;43.124;25.686;2023-10-31T06:08:00;99274.31;;;21.86;59.86
7594;BME280;3838;43.124;25.686;2023-10-31T06:10:26;99277.75;;;21.88;60.01
7594;BME280;3838;43.124;25.686;2023-10-31T06:12:51;99277.78;;;21.89;60.14
7594;BME280;3838;43.124;25.686;2023-10-31T06:15:17;99274.34;;;21.89;59.61
7594;BME280;3838;43.124;25.686;2023-10-31T06:17:42;99278.66;;;21.91;59.53
7594;BME280;3838;43.124;25.686;2023-10-31T06:20:08;99272.69;;;21.91;60.21
7594;BME280;3838;43.124;25.686;2023-10-31T06:22:34;99271.81;;;21.90;59.93
7594;BME280;3838;43.124;25.686;2023-10-31T06:24:59;99272.66;;;21.89;59.71
7594;BME280;3838;43.124;25.686;2023-10-31T06:27:25;99270.09;;;21.89;59.62
7594;BME280;3838;43.124;25.686;2023-10-31T06:29:50;99264.13;;;21.90;59.68
7594;BME280;3838;43.124;25.686;2023-10-31T06:32:16;99269.22;;;21.89;60.07
7594;BME280;3838;43.124;25.686;2023-10-31T06:34:41;99273.53;;;21.90;59.87
7594;BME280;3838;43.124;25.686;2023-10-31T06:37:06;99267.56;;;21.91;59.87
7594;BME280;3838;43.124;25.686;2023-10-31T06:39:32;99267.56;;;21.92;59.89
7594;BME280;3838;43.124;25.686;2023-10-31T06:41:58;99259.91;;;21.95;59.51
7594;BME280;3838;43.124;25.686;2023-10-31T06:44:23;99256.53;;;21.96;59.83
7594;BME280;3838;43.124;25.686;2023-10-31T06:46:48;99258.25;;;21.99;59.70
7594;BME280;3838;43.124;25.686;2023-10-31T06:49:15;99252.38;;;22.03;59.44
7594;BME280;3838;43.124;25.686;2023-10-31T06:51:40;99261.78;;;22.02;59.27
7594;BME280;3838;43.124;25.686;2023-10-31T06:54:06;99256.56;;;21.99;59.28
7594;BME280;3838;43.124;25.686;2023-10-31T06:56:31;99257.44;;;22.01;59.32
7594;BME280;3838;43.124;25.686;2023-10-31T06:58:57;99260.84;;;22.00;59.68
7594;BME280;3838;43.124;25.686;2023-10-31T07:01:22;99265.09;;;21.98;59.82
7594;BME280;3838;43.124;25.686;2023-10-31T07:03:47;99258.28;;;22.00;59.39
7594;BME280;3838;43.124;25.686;2023-10-31T07:06:13;99261.72;;;22.01;59.56
7594;BME280;3838;43.124;25.686;2023-10-31T07:08:38;99263.41;;;22.00;59.44
7594;BME280;3838;43.124;25.686;2023-10-31T07:11:04;99268.53;;;22.00;59.78
7594;BME280;3838;43.124;25.686;2023-10-31T07:13:30;99265.09;;;21.98;59.70
7594;BME280;3838;43.124;25.686;2023-10-31T07:15:56;99258.25;;;21.97;59.76
7594;BME280;3838;43.124;25.686;2023-10-31T07:18:21;99261.69;;;21.99;59.82
7594;BME280;3838;43.124;25.686;2023-10-31T07:20:47;99255.69;;;21.99;59.66
7594;BME280;3838;43.124;25.686;2023-10-31T07:23:12;99257.41;;;21.98;59.12
7594;BME280;3838;43.124;25.686;2023-10-31T07:25:37;99253.97;;;21.98;58.99
7594;BME280;3838;43.124;25.686;2023-10-31T07:28:03;99257.44;;;22.01;59.31
7594;BME280;3838;43.124;25.686;2023-10-31T07:30:28;99262.56;;;22.01;59.49
7594;BME280;3838;43.124;25.686;2023-10-31T07:32:55;99260.00;;;22.01;59.25
7594;BME280;3838;43.124;25.686;2023-10-31T07:35:20;99249.75;;;22.01;59.55
7594;BME280;3838;43.124;25.686;2023-10-31T07:37:46;99264.25;;;21.99;59.67
7594;BME280;3838;43.124;25.686;2023-10-31T07:40:11;99252.28;;;21.98;59.10
7594;BME280;3838;43.124;25.686;2023-10-31T07:42:37;99244.63;;;22.01;59.34
7594;BME280;3838;43.124;25.686;2023-10-31T07:45:03;99247.13;;;21.98;59.57
7594;BME280;3838;43.124;25.686;2023-10-31T07:47:28;99242.91;;;22.00;59.52
7594;BME280;3838;43.124;25.686;2023-10-31T07:49:54;99236.13;;;22.04;58.98
7594;BME280;3838;43.124;25.686;2023-10-31T07:52:19;99239.50;;;22.01;59.32
7594;BME280;3838;43.124;25.686;2023-10-31T07:54:44;99239.66;;;22.11;59.58
7594;BME280;3838;43.124;25.686;2023-10-31T07:57:10;99236.13;;;22.04;60.31
7594;BME280;3838;43.124;25.686;2023-10-31T07:59:36;99237.00;;;22.05;60.87
7594;BME280;3838;43.124;25.686;2023-10-31T08:02:02;99233.56;;;22.02;60.91
7594;BME280;3838;43.124;25.686;2023-10-31T08:04:28;99226.66;;;22.01;61.61
7594;BME280;3838;43.124;25.686;2023-10-31T08:06:55;99227.47;;;21.99;62.18
7594;BME280;3838;43.124;25.686;2023-10-31T08:09:20;99215.47;;;21.96;62.38
7594;BME280;3838;43.124;25.686;2023-10-31T08:11:46;99212.03;;;21.94;62.54
7594;BME280;3838;43.124;25.686;2023-10-31T08:14:11;99206.94;;;21.97;61.71
7594;BME280;3838;43.124;25.686;2023-10-31T08:16:37;99202.69;;;21.98;61.61
7594;BME280;3838;43.124;25.686;2023-10-31T08:19:02;99203.50;;;21.97;61.90
7594;BME280;3838;43.124;25.686;2023-10-31T08:21:28;99193.28;;;21.98;61.70
7594;BME280;3838;43.124;25.686;2023-10-31T08:24:02;99193.19;;;21.92;62.20
7594;BME280;3838;43.124;25.686;2023-10-31T08:26:27;99185.59;;;22.00;60.97
7594;BME280;3838;43.124;25.686;2023-10-31T08:28:53;99189.81;;;21.96;61.60
7594;BME280;3838;43.124;25.686;2023-10-31T08:31:18;99188.09;;;21.94;61.16
7594;BME280;3838;43.124;25.686;2023-10-31T08:33:45;99184.66;;;21.93;61.61
7594;BME280;3838;43.124;25.686;2023-10-31T08:36:10;99185.53;;;21.94;61.48
7594;BME280;3838;43.124;25.686;2023-10-31T08:38:36;99178.81;;;22.02;60.84
7594;BME280;3838;43.124;25.686;2023-10-31T08:41:01;99175.28;;;21.95;61.03
7594;BME280;3838;43.124;25.686;2023-10-31T08:43:27;99169.25;;;21.92;61.37
7594;BME280;3838;43.124;25.686;2023-10-31T08:45:52;99158.13;;;21.91;61.28
7594;BME280;3838;43.124;25.686;2023-10-31T08:48:19;99155.59;;;21.93;60.99
7594;BME280;3838;43.124;25.686;2023-10-31T08:50:44;99141.03;;;21.92;61.42
7594;BME280;3838;43.124;25.686;2023-10-31T08:53:10;99131.69;;;21.97;60.76
7594;BME280;3838;43.124;25.686;2023-10-31T08:55:35;99124.84;;;21.94;61.14
7594;BME280;3838;43.124;25.686;2023-10-31T08:58:01;99118.88;;;21.97;60.93
7594;BME280;3838;43.124;25.686;2023-10-31T09:00:26;99106.91;;;21.96;60.50
7594;BME280;3838;43.124;25.686;2023-10-31T09:02:53;99111.16;;;21.95;60.67
7594;BME280;3838;43.124;25.686;2023-10-31T09:05:19;99093.19;;;21.94;60.53
7594;BME280;3838;43.124;25.686;2023-10-31T09:07:44;99086.38;;;21.96;60.87
7594;BME280;3838;43.124;25.686;2023-10-31T09:10:11;99082.09;;;21.95;61.02
7594;BME280;3838;43.124;25.686;2023-10-31T09:12:37;99069.28;;;21.96;60.66
7594;BME280;3838;43.124;25.686;2023-10-31T09:15:03;99067.56;;;21.97;60.72
7594;BME280;3838;43.124;25.686;2023-10-31T09:17:29;99061.59;;;21.98;60.89
7594;BME280;3838;43.124;25.686;2023-10-31T09:19:55;99062.41;;;21.94;60.46
7594;BME280;3838;43.124;25.686;2023-10-31T09:22:20;99059.03;;;21.96;60.77
7594;BME280;3838;43.124;25.686;2023-10-31T09:24:46;99053.91;;;21.96;60.36
7594;BME280;3838;43.124;25.686;2023-10-31T09:27:11;99034.22;;;21.95;60.70
7594;BME280;3838;43.124;25.686;2023-10-31T09:29:37;99027.38;;;21.94;60.76
7594;BME280;3838;43.124;25.686;2023-10-31T09:32:03;99022.25;;;21.94;60.29
7594;BME280;3838;43.124;25.686;2023-10-31T09:34:30;99012.81;;;21.93;60.75
7594;BME280;3838;43.124;25.686;2023-10-31T09:36:56;99018.81;;;21.94;60.71
7594;BME280;3838;43.124;25.686;2023-10-31T09:39:21;99006.84;;;21.94;60.72
7594;BME280;3838;43.124;25.686;2023-10-31T09:41:48;99005.16;;;21.95;60.70
7594;BME280;3838;43.124;25.686;2023-10-31T09:44:13;98993.19;;;21.95;60.66
7594;BME280;3838;43.124;25.686;2023-10-31T09:46:39;98986.34;;;21.96;60.56
7594;BME280;3838;43.124;25.686;2023-10-31T09:49:06;98983.81;;;21.97;60.47
7594;BME280;3838;43.124;25.686;2023-10-31T09:51:33;98976.09;;;21.97;60.69
7594;BME280;3838;43.124;25.686;2023-10-31T09:53:59;98972.69;;;21.98;60.16
7594;BME280;3838;43.124;25.686;2023-10-31T09:56:27;98971.00;;;21.99;60.02
7594;BME280;3838;43.124;25.686;2023-10-31T09:59:00;98965.88;;;22.00;59.93
7594;BME280;3838;43.124;25.686;2023-10-31T10:01:25;98959.03;;;21.99;60.34
7594;BME280;3838;43.124;25.686;2023-10-31T10:03:51;98954.75;;;22.00;59.92
7594;BME280;3838;43.124;25.686;2023-10-31T10:06:17;98957.34;;;22.01;60.27
7594;BME280;3838;43.124;25.686;2023-10-31T10:08:46;98944.50;;;22.01;60.05
7594;BME280;3838;43.124;25.686;2023-10-31T10:11:12;98947.94;;;22.00;59.85
7594;BME280;3838;43.124;25.686;2023-10-31T10:13:37;98949.69;;;22.03;59.67
7594;BME280;3838;43.124;25.686;2023-10-31T10:16:03;98938.56;;;22.02;59.98
7594;BME280;3838;43.124;25.686;2023-10-31T10:18:31;98943.72;;;22.04;59.98
7594;BME280;3838;43.124;25.686;2023-10-31T10:20:59;98931.69;;;22.01;59.67
7594;BME280;3838;43.124;25.686;2023-10-31T10:23:25;98930.03;;;22.03;59.76
7594;BME280;3838;43.124;25.686;2023-10-31T10:25:51;98925.75;;;22.04;59.79
7594;BME280;3838;43.124;25.686;2023-10-31T10:28:17;98919.78;;;22.05;59.97
7594;BME280;3838;43.124;25.686;2023-10-31T10:30:48;98917.22;;;22.03;59.51
7594;BME280;3838;43.124;25.686;2023-10-31T10:33:17;98916.38;;;22.06;60.11
7594;BME280;3838;43.124;25.686;2023-10-31T10:35:43;98912.97;;;22.07;60.13
7594;BME280;3838;43.124;25.686;2023-10-31T10:38:13;98905.25;;;22.06;59.65
7594;BME280;3838;43.124;25.686;2023-10-31T10:40:40;98906.13;;;22.08;60.34
7594;BME280;3838;43.124;25.686;2023-10-31T10:43:20;98899.28;;;22.08;60.08
7594;BME280;3838;43.124;25.686;2023-10-31T10:45:46;98893.31;;;22.08;59.63
7594;BME280;3838;43.124;25.686;2023-10-31T10:48:16;98889.88;;;22.06;59.56
7594;BME280;3838;43.124;25.686;2023-10-31T10:50:43;98898.44;;;22.08;60.05
7594;BME280;3838;43.124;25.686;2023-10-31T10:53:22;98886.47;;;22.08;59.76
7594;BME280;3838;43.124;25.686;2023-10-31T10:55:52;98882.19;;;22.07;59.41
7594;BME280;3838;43.124;25.686;2023-10-31T11:01:11;98874.50;;;22.10;59.99
7594;BME280;3838;43.124;25.686;2023-10-31T11:03:37;98882.22;;;22.12;59.64
7594;BME280;3838;43.124;25.686;2023-10-31T11:06:04;98873.66;;;22.10;59.32
7594;BME280;3838;43.124;25.686;2023-10-31T11:08:30;98865.09;;;22.11;59.77
7594;BME280;3838;43.124;25.686;2023-10-31T11:10:57;98859.97;;;22.11;59.88
7594;BME280;3838;43.124;25.686;2023-10-31T11:13:24;98856.53;;;22.09;59.43
7594;BME280;3838;43.124;25.686;2023-10-31T11:15:55;98858.25;;;22.10;59.94
7594;BME280;3838;43.124;25.686;2023-10-31T11:18:21;98847.13;;;22.09;59.40
7594;BME280;3838;43.124;25.686;2023-10-31T11:20:47;98842.88;;;22.10;59.29
7594;BME280;3838;43.124;25.686;2023-10-31T11:23:13;98842.03;;;22.11;59.27
7594;BME280;3838;43.124;25.686;2023-10-31T11:25:43;98847.16;;;22.12;59.75
7594;BME280;3838;43.124;25.686;2023-10-31T11:28:16;98848.88;;;22.12;59.34
7594;BME280;3838;43.124;25.686;2023-10-31T11:30:42;98838.59;;;22.12;59.24
7594;BME280;3838;43.124;25.686;2023-10-31T11:33:14;98835.19;;;22.11;59.68
7594;BME280;3838;43.124;25.686;2023-10-31T11:35:40;98830.06;;;22.11;59.12
7594;BME280;3838;43.124;25.686;2023-10-31T11:38:07;98832.63;;;22.11;59.36
7594;BME280;3838;43.124;25.686;2023-10-31T11:40:57;98824.94;;;22.13;59.72
7594;BME280;3838;43.124;25.686;2023-10-31T11:43:25;98818.09;;;22.12;59.58
7594;BME280;3838;43.124;25.686;2023-10-31T11:45:50;98817.25;;;22.13;59.40
7594;BME280;3838;43.124;25.686;2023-10-31T11:48:17;98816.38;;;22.12;59.46
7594;BME280;3838;43.124;25.686;2023-10-31T11:50:42;98817.25;;;22.13;59.08
7594;BME280;3838;43.124;25.686;2023-10-31T11:55:35;98810.41;;;22.13;59.70
7594;BME280;3838;43.124;25.686;2023-10-31T11:58:24;98813.81;;;22.14;59.00
7594;BME280;3838;43.124;25.686;2023-10-31T12:01:04;98813.81;;;22.14;59.69
7594;BME280;3838;43.124;25.686;2023-10-31T12:03:42;98812.09;;;22.13;59.69
7594;BME280;3838;43.124;25.686;2023-10-31T12:06:09;98812.13;;;22.16;58.93
7594;BME280;3838;43.124;25.686;2023-10-31T12:08:39;98804.44;;;22.16;59.39
7594;BME280;3838;43.124;25.686;2023-10-31T12:11:16;98800.16;;;22.15;59.32
7594;BME280;3838;43.124;25.686;2023-10-31T12:16:19;98801.84;;;22.14;59.55
7594;BME280;3838;43.124;25.686;2023-10-31T12:18:44;98789.03;;;22.13;59.18
7594;BME280;3838;43.124;25.686;2023-10-31T12:21:10;98795.88;;;22.14;59.08
7594;BME280;3838;43.124;25.686;2023-10-31T12:23:39;98789.88;;;22.15;59.28
7594;BME280;3838;43.124;25.686;2023-10-31T12:26:05;98790.75;;;22.15;59.05
7594;BME280;3838;43.124;25.686;2023-10-31T12:28:30;98784.75;;;22.15;59.02
7594;BME280;3838;43.124;25.686;2023-10-31T12:30:55;98785.59;;;22.14;58.92
7594;BME280;3838;43.124;25.686;2023-10-31T12:33:25;98777.91;;;22.12;59.15
7594;BME280;3838;43.124;25.686;2023-10-31T12:36:01;98776.22;;;22.14;58.99
7594;BME280;3838;43.124;25.686;2023-10-31T12:38:27;98780.50;;;22.15;59.29
7594;BME280;3838;43.124;25.686;2023-10-31T12:40:55;98777.06;;;22.13;59.22
7594;BME280;3838;43.124;25.686;2023-10-31T12:43:21;98776.22;;;22.16;59.31
7594;BME280;3838;43.124;25.686;2023-10-31T12:45:47;98781.34;;;22.16;58.85
7594;BME280;3838;43.124;25.686;2023-10-31T12:48:12;98777.91;;;22.15;59.45
7594;BME280;3838;43.124;25.686;2023-10-31T12:50:39;98779.63;;;22.16;59.17
7594;BME280;3838;43.124;25.686;2023-10-31T12:53:06;98771.94;;;22.16;58.85
7594;BME280;3838;43.124;25.686;2023-10-31T12:55:41;98767.66;;;22.17;58.90
7594;BME280;3838;43.124;25.686;2023-10-31T12:58:07;98775.38;;;22.17;58.85
7594;BME280;3838;43.124;25.686;2023-10-31T13:00:35;98767.66;;;22.17;58.96
7594;BME280;3838;43.124;25.686;2023-10-31T13:03:06;98778.78;;;22.17;58.55
7594;BME280;3838;43.124;25.686;2023-10-31T13:05:33;98771.09;;;22.17;59.24
7594;BME280;3838;43.124;25.686;2023-10-31T13:07:59;98774.53;;;22.18;58.59
7594;BME280;3838;43.124;25.686;2023-10-31T13:10:28;98771.94;;;22.18;59.10
7594;BME280;3838;43.124;25.686;2023-10-31T13:12:54;98771.09;;;22.19;59.26